Time;durP1;ratioP1;P1;durP2;ratioP2;P2;SDS_P1;SDS_P2;PMS_P1;PMS_P2;Temp;Humidity;BMP_temperature;BMP_pressure;BME280_temperature;BME280_humidity;BME280_pressure;Samples;Min_cycle;Max_cycle;Signal;HPM_P1;HPM_P2
2021/12/02 00:01:08;;;;;;;;;;;23.10;58.60;;;;;;5073527;28;19936;-51
2021/12/02 00:03:36;;;;;;;;;;;23.20;58.70;;;;;;5074822;28;20291;-57
2021/12/02 00:06:07;;;;;;;;;;;23.20;58.70;;;;;;5074335;28;19924;-53
2021/12/02 00:08:34;;;;;;;;;;;23.20;58.70;;;;;;5074755;28;19924;-53
2021/12/02 00:11:01;;;;;;;;;;;23.20;58.80;;;;;;5073509;28;19931;-58
2021/12/02 00:13:30;;;;;;;;;;;23.10;58.60;;;;;;5074299;28;19931;-52
2021/12/02 00:21:18;;;;;;;;;;;23.20;58.70;;;;;;5074476;28;19947;-49
2021/12/02 00:23:48;;;;;;;;;;;23.20;58.70;;;;;;5073967;28;19924;-53
2021/12/02 00:26:16;;;;;;;;;;;23.20;58.70;;;;;;5073047;28;19931;-55
2021/12/02 00:28:43;;;;;;;;;;;23.20;58.60;;;;;;5074077;28;19925;-55
2021/12/02 00:31:13;;;;;;;;;;;23.20;58.60;;;;;;5074035;28;19928;-57
2021/12/02 00:33:44;;;;;;;;;;;23.20;58.60;;;;;;5074027;28;19925;-49
2021/12/02 00:36:14;;;;;;;;;;;23.20;58.60;;;;;;5074219;28;19924;-56
2021/12/02 00:38:42;;;;;;;;;;;23.20;58.60;;;;;;5074267;28;19947;-56
2021/12/02 00:41:10;;;;;;;;;;;23.20;58.60;;;;;;5072970;28;19928;-54
2021/12/02 00:43:38;;;;;;;;;;;23.20;58.60;;;;;;5056391;28;19928;-55
2021/12/02 00:46:08;;;;;;;;;;;23.20;58.60;;;;;;5074182;28;19924;-54
2021/12/02 00:48:36;;;;;;;;;;;23.20;58.60;;;;;;5074185;28;19925;-54
2021/12/02 00:51:04;;;;;;;;;;;23.20;58.60;;;;;;5074111;28;19924;-49
2021/12/02 00:53:33;;;;;;;;;;;23.20;58.60;;;;;;5073889;28;19924;-52
2021/12/02 00:56:04;;;;;;;;;;;23.20;58.60;;;;;;5073764;28;19932;-57
2021/12/02 00:58:32;;;;;;;;;;;23.20;58.60;;;;;;5073564;28;19979;-57
2021/12/02 01:00:59;;;;;;;;;;;23.20;58.60;;;;;;5073915;28;19974;-57
2021/12/02 01:03:37;;;;;;;;;;;23.20;58.60;;;;;;5073881;28;19963;-58
2021/12/02 01:06:06;;;;;;;;;;;23.20;58.50;;;;;;5074083;28;19924;-56
2021/12/02 01:08:34;;;;;;;;;;;23.20;58.50;;;;;;5073630;28;19929;-54
2021/12/02 01:11:01;;;;;;;;;;;23.20;58.50;;;;;;5055073;28;20015;-57
2021/12/02 01:13:28;;;;;;;;;;;23.20;58.50;;;;;;5077932;28;20330;-57
2021/12/02 01:15:56;;;;;;;;;;;23.20;58.50;;;;;;5078061;28;19924;-57
2021/12/02 01:18:23;;;;;;;;;;;23.20;58.50;;;;;;5077993;28;19928;-58
2021/12/02 01:20:51;;;;;;;;;;;23.20;58.50;;;;;;5077852;28;19924;-56
2021/12/02 01:23:20;;;;;;;;;;;23.20;58.50;;;;;;5077697;28;19951;-57
2021/12/02 01:25:52;;;;;;;;;;;23.20;58.40;;;;;;5060178;28;19932;-56
2021/12/02 01:28:21;;;;;;;;;;;23.20;58.40;;;;;;5059109;28;19924;-54
2021/12/02 01:30:50;;;;;;;;;;;23.20;58.50;;;;;;5060016;28;19925;-55
2021/12/02 01:33:18;;;;;;;;;;;23.20;58.40;;;;;;5077725;28;19931;-51
2021/12/02 01:35:49;;;;;;;;;;;23.20;58.40;;;;;;5078169;28;20023;-49
2021/12/02 01:38:17;;;;;;;;;;;23.20;58.40;;;;;;5077316;28;19928;-51
2021/12/02 01:40:44;;;;;;;;;;;23.20;58.40;;;;;;5077611;28;19928;-59
2021/12/02 01:43:15;;;;;;;;;;;23.10;58.40;;;;;;5076135;28;19931;-49
2021/12/02 01:45:44;;;;;;;;;;;23.20;58.40;;;;;;5077492;28;19924;-58
2021/12/02 01:48:14;;;;;;;;;;;23.20;58.50;;;;;;5077433;28;19956;-51
2021/12/02 01:50:42;;;;;;;;;;;23.10;58.50;;;;;;5077065;28;19978;-56
2021/12/02 01:53:13;;;;;;;;;;;23.10;58.50;;;;;;5077131;28;19990;-50
2021/12/02 01:55:42;;;;;;;;;;;23.10;58.60;;;;;;5077322;28;19924;-55
2021/12/02 01:58:15;;;;;;;;;;;23.10;58.60;;;;;;5075600;28;19924;-55
2021/12/02 02:00:46;;;;;;;;;;;23.10;58.60;;;;;;5076901;28;19974;-48
2021/12/02 02:03:14;;;;;;;;;;;23.10;58.60;;;;;;5076719;28;19930;-56
2021/12/02 02:05:42;;;;;;;;;;;23.10;58.60;;;;;;5076650;28;19925;-53
2021/12/02 02:08:21;;;;;;;;;;;23.10;58.60;;;;;;5076715;28;20494;-52
2021/12/02 02:10:49;;;;;;;;;;;23.10;58.60;;;;;;5077024;28;19928;-57
2021/12/02 02:13:19;;;;;;;;;;;23.10;58.60;;;;;;5075972;28;19967;-57
2021/12/02 02:15:51;;;;;;;;;;;23.00;58.50;;;;;;5076636;28;20027;-54
2021/12/02 02:18:22;;;;;;;;;;;23.00;58.50;;;;;;5076871;28;19935;-49
2021/12/02 02:21:15;;;;;;;;;;;23.00;58.60;;;;;;5076508;28;19924;-57
2021/12/02 02:23:43;;;;;;;;;;;23.00;58.50;;;;;;5075625;28;19971;-57
2021/12/02 02:26:11;;;;;;;;;;;23.00;58.60;;;;;;5076422;28;19925;-50
2021/12/02 02:28:38;;;;;;;;;;;23.00;58.60;;;;;;5075234;28;19928;-58
2021/12/02 02:31:05;;;;;;;;;;;23.00;58.60;;;;;;5076594;28;19928;-50
2021/12/02 02:33:38;;;;;;;;;;;23.00;58.70;;;;;;5076270;28;19928;-58
2021/12/02 02:36:06;;;;;;;;;;;23.00;58.70;;;;;;5076166;28;19924;-51
2021/12/02 02:38:34;;;;;;;;;;;23.00;58.70;;;;;;5076187;28;19977;-51
2021/12/02 02:41:03;;;;;;;;;;;23.00;58.70;;;;;;5058775;28;19970;-55
2021/12/02 02:43:32;;;;;;;;;;;23.00;58.70;;;;;;5075189;28;19928;-51
2021/12/02 02:45:59;;;;;;;;;;;22.90;58.60;;;;;;5076385;28;20350;-52
2021/12/02 02:48:26;;;;;;;;;;;23.00;58.70;;;;;;5076010;28;20003;-53
2021/12/02 02:50:53;;;;;;;;;;;22.90;58.60;;;;;;5076258;28;19925;-49
2021/12/02 02:53:22;;;;;;;;;;;23.00;58.70;;;;;;5076043;28;19974;-56
2021/12/02 02:59:27;;;;;;;;;;;22.90;58.60;;;;;;5074680;28;20387;-56
2021/12/02 03:04:00;;;;;;;;;;;22.90;58.60;;;;;;5076058;28;19924;-58
2021/12/02 03:09:02;;;;;;;;;;;22.90;58.60;;;;;;5075963;28;19978;-56
2021/12/02 03:11:38;;;;;;;;;;;22.90;58.60;;;;;;5075600;28;19932;-50
2021/12/02 03:14:15;;;;;;;;;;;22.90;58.70;;;;;;5074810;28;20292;-52
2021/12/02 03:16:45;;;;;;;;;;;22.90;58.70;;;;;;5059049;28;20447;-60
2021/12/02 03:19:13;;;;;;;;;;;22.90;58.70;;;;;;5075698;28;19924;-59
2021/12/02 03:21:40;;;;;;;;;;;22.90;58.70;;;;;;5057661;28;19932;-53
2021/12/02 03:24:08;;;;;;;;;;;22.90;58.70;;;;;;5075156;28;19924;-55
2021/12/02 03:26:36;;;;;;;;;;;22.90;58.70;;;;;;5058173;28;19931;-58
2021/12/02 03:29:03;;;;;;;;;;;22.90;58.70;;;;;;5074593;28;19925;-59
2021/12/02 03:31:30;;;;;;;;;;;22.90;58.70;;;;;;5075179;28;19925;-51
2021/12/02 03:33:58;;;;;;;;;;;22.90;58.70;;;;;;5075137;28;19947;-57
2021/12/02 03:36:25;;;;;;;;;;;22.90;58.70;;;;;;5075080;28;19990;-58
2021/12/02 03:38:52;;;;;;;;;;;22.90;58.70;;;;;;5076422;28;20395;-57
2021/12/02 03:41:19;;;;;;;;;;;22.80;58.60;;;;;;5074979;28;20487;-58
2021/12/02 03:43:47;;;;;;;;;;;22.90;58.70;;;;;;5074098;28;19932;-55
2021/12/02 03:46:16;;;;;;;;;;;22.80;59.20;;;;;;5075199;28;20264;-57
2021/12/02 03:48:43;;;;;;;;;;;22.80;58.60;;;;;;5074826;28;20007;-57
2021/12/02 03:51:11;;;;;;;;;;;22.80;58.70;;;;;;5074785;28;19929;-54
2021/12/02 03:53:38;;;;;;;;;;;22.80;58.70;;;;;;5056913;28;19939;-57
2021/12/02 03:56:08;;;;;;;;;;;22.80;58.60;;;;;;5074997;28;19974;-55
2021/12/02 03:58:36;;;;;;;;;;;22.80;58.60;;;;;;5073614;28;19924;-54
2021/12/02 04:01:04;;;;;;;;;;;22.80;58.70;;;;;;5074591;28;19925;-57
2021/12/02 04:03:31;;;;;;;;;;;22.80;58.70;;;;;;5075037;28;19929;-59
2021/12/02 04:05:59;;;;;;;;;;;22.80;58.70;;;;;;5074724;28;20363;-54
2021/12/02 04:08:31;;;;;;;;;;;22.80;58.70;;;;;;5074454;28;19928;-58
2021/12/02 04:14:25;;;;;;;;;;;22.80;58.70;;;;;;5073603;28;19928;-59
2021/12/02 04:16:33;;;;;;;;;;;22.80;58.70;;;;;;5066445;28;19925;-55
2021/12/02 04:19:01;;;;;;;;;;;22.80;58.60;;;;;;5074834;28;19947;-54
2021/12/02 04:21:29;;;;;;;;;;;22.80;58.70;;;;;;5074197;28;19929;-55
2021/12/02 04:23:56;;;;;;;;;;;22.80;58.60;;;;;;5074237;28;19972;-52
2021/12/02 04:26:23;;;;;;;;;;;22.80;58.60;;;;;;5074360;28;19925;-52
2021/12/02 04:28:50;;;;;;;;;;;22.80;58.60;;;;;;5073367;28;19924;-59
2021/12/02 04:31:17;;;;;;;;;;;22.80;58.60;;;;;;5074066;28;19928;-52
2021/12/02 04:33:44;;;;;;;;;;;22.80;58.60;;;;;;5074028;28;19947;-55
2021/12/02 04:36:11;;;;;;;;;;;22.80;58.60;;;;;;5074173;28;19932;-57
2021/12/02 04:38:38;;;;;;;;;;;22.80;58.60;;;;;;5074282;28;19932;-51
2021/12/02 04:41:05;;;;;;;;;;;22.80;58.60;;;;;;5074269;28;19924;-49
2021/12/02 04:43:33;;;;;;;;;;;22.80;58.60;;;;;;5074325;28;19933;-53
2021/12/02 04:46:00;;;;;;;;;;;22.80;58.60;;;;;;5093719;28;19924;-51
2021/12/02 04:48:27;;;;;;;;;;;22.80;58.60;;;;;;5094713;28;20026;-58
2021/12/02 04:50:54;;;;;;;;;;;22.80;58.50;;;;;;5094330;28;20292;-57
2021/12/02 04:53:21;;;;;;;;;;;22.80;58.50;;;;;;5076219;28;19924;-53
2021/12/02 04:55:49;;;;;;;;;;;22.80;58.50;;;;;;5094283;28;19971;-57
2021/12/02 04:58:16;;;;;;;;;;;22.80;58.50;;;;;;5094023;28;19924;-55
2021/12/02 05:00:43;;;;;;;;;;;22.80;58.50;;;;;;5091571;28;19924;-54
2021/12/02 05:03:10;;;;;;;;;;;22.80;58.50;;;;;;5094092;28;19931;-50
2021/12/02 05:05:37;;;;;;;;;;;22.80;58.50;;;;;;5094050;28;19924;-53
2021/12/02 05:08:04;;;;;;;;;;;22.80;58.50;;;;;;5094139;28;19924;-58
2021/12/02 05:10:31;;;;;;;;;;;22.80;58.50;;;;;;5075921;28;19977;-53
2021/12/02 05:12:58;;;;;;;;;;;22.80;58.50;;;;;;5093761;28;19924;-56
2021/12/02 05:15:25;;;;;;;;;;;22.80;58.50;;;;;;5091071;28;20380;-58
2021/12/02 05:17:52;;;;;;;;;;;22.80;58.50;;;;;;5094063;28;19931;-56
2021/12/02 05:20:20;;;;;;;;;;;22.80;58.50;;;;;;5093691;28;19928;-58
2021/12/02 05:22:47;;;;;;;;;;;22.80;58.50;;;;;;5093620;28;19924;-53
2021/12/02 05:25:14;;;;;;;;;;;22.80;58.50;;;;;;5094009;28;19924;-47
2021/12/02 05:27:41;;;;;;;;;;;22.80;58.50;;;;;;5093984;28;19932;-58
2021/12/02 05:30:09;;;;;;;;;;;22.80;58.50;;;;;;5091331;28;19932;-57
2021/12/02 05:32:36;;;;;;;;;;;22.80;58.60;;;;;;5093619;28;19931;-58
2021/12/02 05:35:04;;;;;;;;;;;22.80;58.50;;;;;;5093610;28;19924;-49
2021/12/02 05:37:31;;;;;;;;;;;22.80;58.50;;;;;;5093434;28;19931;-58
2021/12/02 05:39:58;;;;;;;;;;;22.80;58.40;;;;;;5093479;28;20539;-55
2021/12/02 05:42:25;;;;;;;;;;;22.70;58.40;;;;;;5093442;28;19924;-57
2021/12/02 05:44:53;;;;;;;;;;;22.80;58.50;;;;;;5073034;28;19939;-56
2021/12/02 05:47:20;;;;;;;;;;;22.70;58.40;;;;;;5093794;28;19924;-58
2021/12/02 05:49:47;;;;;;;;;;;22.80;58.40;;;;;;5093725;28;19924;-54
2021/12/02 05:52:19;;;;;;;;;;;22.80;58.40;;;;;;5093296;28;20371;-52
2021/12/02 05:54:46;;;;;;;;;;;22.70;58.30;;;;;;5093717;28;19924;-57
2021/12/02 05:57:14;;;;;;;;;;;22.70;58.30;;;;;;5093242;28;19928;-56
2021/12/02 05:59:40;;;;;;;;;;;22.70;58.30;;;;;;5094936;28;19931;-55
2021/12/02 06:02:08;;;;;;;;;;;22.80;58.40;;;;;;5097419;28;20272;-56
2021/12/02 06:04:38;;;;;;;;;;;22.70;58.30;;;;;;5097124;28;19924;-57
2021/12/02 06:07:05;;;;;;;;;;;22.70;58.30;;;;;;5097262;28;19924;-53
2021/12/02 06:09:32;;;;;;;;;;;22.70;58.30;;;;;;5097332;28;20299;-57
2021/12/02 06:11:59;;;;;;;;;;;22.70;58.30;;;;;;5097261;28;20299;-59
2021/12/02 06:14:27;;;;;;;;;;;22.80;58.40;;;;;;5094656;28;19924;-59
2021/12/02 06:16:54;;;;;;;;;;;22.70;58.30;;;;;;5097179;28;20037;-48
2021/12/02 06:19:21;;;;;;;;;;;22.70;58.30;;;;;;5097686;28;19931;-54
2021/12/02 06:21:48;;;;;;;;;;;22.80;58.40;;;;;;5096764;28;20427;-55
2021/12/02 06:24:15;;;;;;;;;;;22.80;58.30;;;;;;5078572;28;20371;-52
2021/12/02 06:26:42;;;;;;;;;;;22.70;58.20;;;;;;5098033;28;20264;-48
2021/12/02 06:29:09;;;;;;;;;;;22.80;58.30;;;;;;5096617;28;19935;-55
2021/12/02 06:31:36;;;;;;;;;;;22.80;58.30;;;;;;5076766;28;19924;-50
2021/12/02 06:34:04;;;;;;;;;;;22.80;58.30;;;;;;5076281;28;19954;-55
2021/12/02 06:36:30;;;;;;;;;;;22.70;58.20;;;;;;5076399;28;19924;-53
2021/12/02 06:38:58;;;;;;;;;;;22.80;58.20;;;;;;5076433;28;19925;-58
2021/12/02 06:41:26;;;;;;;;;;;22.80;58.30;;;;;;5076690;28;19962;-50
2021/12/02 06:43:52;;;;;;;;;;;22.80;58.20;;;;;;5076293;28;19925;-50
2021/12/02 06:46:20;;;;;;;;;;;22.70;58.20;;;;;;5075202;28;19928;-56
2021/12/02 06:48:49;;;;;;;;;;;22.80;58.20;;;;;;5076055;28;19956;-48
2021/12/02 06:51:18;;;;;;;;;;;22.80;58.20;;;;;;5076229;28;20126;-59
2021/12/02 06:53:48;;;;;;;;;;;22.80;58.20;;;;;;5075725;28;19928;-49
2021/12/02 06:56:15;;;;;;;;;;;22.80;58.20;;;;;;5076202;28;19924;-59
2021/12/02 06:58:42;;;;;;;;;;;22.80;58.10;;;;;;5075946;28;19924;-52
2021/12/02 07:01:09;;;;;;;;;;;22.80;58.10;;;;;;5075047;28;19929;-53
2021/12/02 07:03:37;;;;;;;;;;;22.80;58.10;;;;;;5075945;28;19924;-53
2021/12/02 07:06:04;;;;;;;;;;;22.80;58.10;;;;;;5075598;28;20384;-51
2021/12/02 07:08:31;;;;;;;;;;;22.80;58.00;;;;;;5075975;28;19932;-55
2021/12/02 07:10:59;;;;;;;;;;;22.80;58.00;;;;;;5075348;28;20261;-50
2021/12/02 07:13:26;;;;;;;;;;;22.80;58.00;;;;;;5075563;28;19925;-56
2021/12/02 07:15:54;;;;;;;;;;;22.90;58.00;;;;;;5074720;28;20406;-51
2021/12/02 07:18:22;;;;;;;;;;;22.90;58.00;;;;;;5075439;28;19924;-52
2021/12/02 07:20:50;;;;;;;;;;;22.90;58.00;;;;;;5075721;28;20272;-56
2021/12/02 07:23:19;;;;;;;;;;;22.90;58.00;;;;;;5075468;28;20355;-53
2021/12/02 07:25:48;;;;;;;;;;;22.90;57.90;;;;;;5075235;28;19925;-58
2021/12/02 07:28:16;;;;;;;;;;;22.90;57.90;;;;;;5075232;28;19978;-55
2021/12/02 07:30:43;;;;;;;;;;;22.90;57.90;;;;;;5074143;28;19924;-54
2021/12/02 07:33:11;;;;;;;;;;;22.90;57.80;;;;;;5075375;28;20341;-57
2021/12/02 07:35:38;;;;;;;;;;;23.00;57.90;;;;;;5074975;28;19932;-52
2021/12/02 07:38:05;;;;;;;;;;;23.00;57.80;;;;;;5075282;28;20391;-58
2021/12/02 07:40:36;;;;;;;;;;;23.00;57.80;;;;;;5075008;28;19925;-56
2021/12/02 07:43:03;;;;;;;;;;;23.00;57.80;;;;;;5075395;28;19929;-57
2021/12/02 07:45:34;;;;;;;;;;;23.00;57.80;;;;;;5074335;28;19932;-57
2021/12/02 07:48:04;;;;;;;;;;;23.00;57.70;;;;;;5075185;28;19925;-55
2021/12/02 07:50:33;;;;;;;;;;;23.00;57.70;;;;;;5075053;28;19925;-58
2021/12/02 07:53:02;;;;;;;;;;;23.00;57.60;;;;;;5074544;28;19924;-50
2021/12/02 07:55:30;;;;;;;;;;;23.00;57.60;;;;;;5074974;28;19978;-53
2021/12/02 07:57:57;;;;;;;;;;;23.10;57.70;;;;;;5074429;28;19931;-56
2021/12/02 08:00:27;;;;;;;;;;;23.10;57.70;;;;;;5073761;28;19924;-54
2021/12/02 08:02:55;;;;;;;;;;;23.10;57.70;;;;;;5074310;28;19967;-52
2021/12/02 08:05:24;;;;;;;;;;;23.00;57.60;;;;;;5074365;28;19970;-52
2021/12/02 08:07:51;;;;;;;;;;;23.10;57.70;;;;;;5074438;28;19928;-51
2021/12/02 08:10:19;;;;;;;;;;;23.10;57.70;;;;;;5074247;28;19924;-55
2021/12/02 08:12:50;;;;;;;;;;;23.10;57.70;;;;;;5074632;28;19932;-56
2021/12/02 08:15:20;;;;;;;;;;;23.10;57.70;;;;;;5056562;28;19975;-55
2021/12/02 08:17:47;;;;;;;;;;;23.10;57.70;;;;;;5055264;28;19932;-52
2021/12/02 08:20:15;;;;;;;;;;;23.10;57.60;;;;;;5074530;28;19928;-51
2021/12/02 08:22:42;;;;;;;;;;;23.10;57.60;;;;;;5073314;28;19931;-56
2021/12/02 08:25:09;;;;;;;;;;;23.10;57.60;;;;;;5074126;28;19924;-57
2021/12/02 08:27:37;;;;;;;;;;;23.10;57.50;;;;;;5074203;28;20019;-54
2021/12/02 08:30:05;;;;;;;;;;;23.10;57.50;;;;;;5074076;28;19931;-56
2021/12/02 08:32:32;;;;;;;;;;;23.10;57.50;;;;;;5073930;28;19928;-53
2021/12/02 08:35:00;;;;;;;;;;;23.20;57.50;;;;;;5073935;28;19974;-53
2021/12/02 08:37:30;;;;;;;;;;;23.20;57.50;;;;;;5056156;28;19978;-57
2021/12/02 08:39:59;;;;;;;;;;;23.20;57.50;;;;;;5074261;28;19974;-53
2021/12/02 08:42:28;;;;;;;;;;;23.20;57.50;;;;;;5074258;28;20307;-51
2021/12/02 08:44:55;;;;;;;;;;;23.20;57.40;;;;;;5074311;28;19925;-48
2021/12/02 08:47:23;;;;;;;;;;;23.20;57.40;;;;;;5073374;28;20084;-56
2021/12/02 08:49:54;;;;;;;;;;;23.20;57.40;;;;;;5074276;28;19951;-50
2021/12/02 08:52:22;;;;;;;;;;;23.20;57.40;;;;;;5074135;28;19975;-55
2021/12/02 08:54:49;;;;;;;;;;;23.20;57.40;;;;;;5073776;28;20299;-54
2021/12/02 08:57:31;;;;;;;;;;;23.20;57.30;;;;;;5073715;28;20334;-53
2021/12/02 08:59:58;;;;;;;;;;;23.30;57.40;;;;;;5073996;28;19924;-57
2021/12/02 09:02:26;;;;;;;;;;;23.30;57.40;;;;;;5072464;28;19924;-55
2021/12/02 09:04:53;;;;;;;;;;;23.30;57.30;;;;;;5074371;28;19928;-55
2021/12/02 09:07:20;;;;;;;;;;;23.30;57.30;;;;;;5074074;28;20293;-55
2021/12/02 09:09:47;;;;;;;;;;;23.30;57.30;;;;;;5073583;28;19924;-56
2021/12/02 09:12:14;;;;;;;;;;;23.30;57.30;;;;;;5074099;28;19931;-56
2021/12/02 09:14:41;;;;;;;;;;;23.30;57.30;;;;;;5073841;28;20278;-52
2021/12/02 09:17:09;;;;;;;;;;;23.30;57.30;;;;;;5072313;28;20379;-51
2021/12/02 09:19:36;;;;;;;;;;;23.30;57.30;;;;;;5073767;28;19929;-56
2021/12/02 09:22:03;;;;;;;;;;;23.30;57.30;;;;;;5073711;28;19980;-49
2021/12/02 09:24:30;;;;;;;;;;;23.30;57.20;;;;;;5073203;28;19929;-51
2021/12/02 09:26:57;;;;;;;;;;;23.40;57.30;;;;;;5073404;28;20301;-54
2021/12/02 09:29:25;;;;;;;;;;;23.40;57.30;;;;;;5073299;28;20440;-53
2021/12/02 09:31:52;;;;;;;;;;;23.40;57.20;;;;;;5072416;28;20402;-52
2021/12/02 09:34:20;;;;;;;;;;;23.30;57.10;;;;;;5077427;28;19929;-56
2021/12/02 09:36:47;;;;;;;;;;;23.30;57.20;;;;;;5077085;28;19955;-57
2021/12/02 09:39:15;;;;;;;;;;;23.40;57.30;;;;;;5077231;28;19924;-55
2021/12/02 09:41:44;;;;;;;;;;;23.40;57.30;;;;;;5077776;28;19929;-54
2021/12/02 09:44:11;;;;;;;;;;;23.40;57.30;;;;;;5077127;28;19931;-52
2021/12/02 09:46:40;;;;;;;;;;;23.40;57.30;;;;;;5076099;28;19924;-53
2021/12/02 09:49:08;;;;;;;;;;;23.40;57.30;;;;;;5077357;28;19924;-54
2021/12/02 09:51:46;;;;;;;;;;;23.40;57.30;;;;;;5077138;28;19975;-57
2021/12/02 09:54:37;;;;;;;;;;;23.40;57.30;;;;;;5077016;28;19924;-51
2021/12/02 09:57:07;;;;;;;;;;;23.40;57.30;;;;;;5077017;28;19948;-53
2021/12/02 09:59:46;;;;;;;;;;;23.40;57.30;;;;;;5076894;28;19925;-52
2021/12/02 10:02:16;;;;;;;;;;;23.40;57.30;;;;;;5075898;28;19975;-51
2021/12/02 10:05:01;;;;;;;;;;;23.40;57.40;;;;;;5076403;28;20379;-56
2021/12/02 10:07:33;;;;;;;;;;;23.40;57.40;;;;;;5076669;28;20019;-50
2021/12/02 10:10:07;;;;;;;;;;;23.40;57.40;;;;;;5058977;28;19974;-53
2021/12/02 10:12:37;;;;;;;;;;;23.40;57.50;;;;;;5077329;28;19954;-55
2021/12/02 10:15:14;;;;;;;;;;;23.30;57.40;;;;;;5076861;28;20272;-52
2021/12/02 10:20:25;;;;;;;;;;;23.30;57.40;;;;;;5077304;28;19925;-58
2021/12/02 10:23:09;;;;;;;;;;;23.30;57.40;;;;;;5076632;28;20038;-55
2021/12/02 10:25:36;;;;;;;;;;;23.30;57.50;;;;;;5076744;28;20334;-57
2021/12/02 10:28:05;;;;;;;;;;;23.30;57.40;;;;;;5058909;28;19932;-57
2021/12/02 10:30:32;;;;;;;;;;;23.30;57.40;;;;;;5076598;28;20299;-54
2021/12/02 10:32:59;;;;;;;;;;;23.40;57.50;;;;;;5075181;28;19924;-52
2021/12/02 10:35:37;;;;;;;;;;;23.40;57.50;;;;;;5076091;28;19925;-52
2021/12/02 10:38:04;;;;;;;;;;;23.40;57.50;;;;;;5076219;28;19924;-53
2021/12/02 10:40:31;;;;;;;;;;;23.40;57.50;;;;;;5076112;28;19924;-50
2021/12/02 10:43:06;;;;;;;;;;;23.40;57.50;;;;;;5076954;28;20022;-54
2021/12/02 10:45:33;;;;;;;;;;;23.40;57.50;;;;;;5075423;28;19932;-56
2021/12/02 10:48:00;;;;;;;;;;;23.40;57.50;;;;;;5075561;28;19931;-52
2021/12/02 10:50:35;;;;;;;;;;;23.40;57.50;;;;;;5075953;28;20402;-59
2021/12/02 10:53:02;;;;;;;;;;;23.40;57.50;;;;;;5076089;28;19925;-57
2021/12/02 10:55:31;;;;;;;;;;;23.40;57.50;;;;;;5075910;28;19928;-58
2021/12/02 10:57:59;;;;;;;;;;;23.40;57.50;;;;;;5075904;28;19971;-49
2021/12/02 11:00:28;;;;;;;;;;;23.30;57.50;;;;;;5076372;28;20322;-51
2021/12/02 11:02:57;;;;;;;;;;;23.40;57.50;;;;;;5074957;28;19924;-49
2021/12/02 11:05:31;;;;;;;;;;;23.40;57.50;;;;;;5075572;28;19925;-55
2021/12/02 11:08:06;;;;;;;;;;;23.40;57.50;;;;;;5075741;28;19931;-57
2021/12/02 11:10:33;;;;;;;;;;;23.40;57.50;;;;;;5075591;28;20007;-56
2021/12/02 11:13:00;;;;;;;;;;;23.40;57.50;;;;;;5075506;28;19928;-58
2021/12/02 11:15:28;;;;;;;;;;;23.40;57.50;;;;;;5057623;28;19928;-55
2021/12/02 11:17:59;;;;;;;;;;;23.40;57.50;;;;;;5074354;28;19940;-56
2021/12/02 11:20:31;;;;;;;;;;;23.40;57.50;;;;;;5075440;28;19931;-57
2021/12/02 11:23:04;;;;;;;;;;;23.40;57.50;;;;;;5057769;28;19925;-57
2021/12/02 11:25:32;;;;;;;;;;;23.40;57.50;;;;;;5075480;28;19924;-58
2021/12/02 11:28:03;;;;;;;;;;;23.40;57.50;;;;;;5075126;28;19928;-56
2021/12/02 11:30:30;;;;;;;;;;;23.40;57.60;;;;;;5075214;28;19936;-55
2021/12/02 11:33:08;;;;;;;;;;;23.40;57.60;;;;;;5074212;28;20380;-58
2021/12/02 11:35:40;;;;;;;;;;;23.40;57.60;;;;;;5075301;28;20019;-58
2021/12/02 11:38:10;;;;;;;;;;;23.40;57.60;;;;;;5074985;28;19928;-58
2021/12/02 11:40:42;;;;;;;;;;;23.40;57.60;;;;;;5076107;28;19924;-55
2021/12/02 11:43:11;;;;;;;;;;;23.40;57.60;;;;;;5075312;28;19924;-49
2021/12/02 11:45:46;;;;;;;;;;;23.40;57.70;;;;;;5074770;28;19928;-56
2021/12/02 11:48:14;;;;;;;;;;;23.40;57.60;;;;;;5073965;28;19951;-58
2021/12/02 11:50:42;;;;;;;;;;;23.40;57.70;;;;;;5074983;28;20023;-59
2021/12/02 11:53:10;;;;;;;;;;;23.40;57.60;;;;;;5074850;28;19951;-51
2021/12/02 11:55:38;;;;;;;;;;;23.40;57.60;;;;;;5074564;28;19974;-55
2021/12/02 11:58:06;;;;;;;;;;;23.40;57.60;;;;;;5074528;28;20342;-52
2021/12/02 12:00:33;;;;;;;;;;;23.40;57.60;;;;;;5074613;28;19973;-53
2021/12/02 12:03:02;;;;;;;;;;;23.40;57.60;;;;;;5074394;28;20340;-58
2021/12/02 12:05:40;;;;;;;;;;;23.40;57.60;;;;;;5074204;28;19924;-56
2021/12/02 12:08:07;;;;;;;;;;;23.40;57.60;;;;;;5074359;28;20455;-53
2021/12/02 12:10:38;;;;;;;;;;;23.40;57.60;;;;;;5074594;28;19966;-55
2021/12/02 12:13:12;;;;;;;;;;;23.50;57.60;;;;;;5074378;28;19991;-55
2021/12/02 12:15:41;;;;;;;;;;;23.50;57.60;;;;;;5074647;28;20037;-51
2021/12/02 12:18:10;;;;;;;;;;;23.50;57.60;;;;;;5073357;28;19925;-58
2021/12/02 12:21:00;;;;;;;;;;;23.50;57.70;;;;;;5073933;28;19924;-57
2021/12/02 12:23:27;;;;;;;;;;;23.50;57.70;;;;;;5074015;28;19931;-55
2021/12/02 12:26:13;;;;;;;;;;;23.50;57.60;;;;;;5074675;28;20382;-58
2021/12/02 12:28:58;;;;;;;;;;;23.50;57.70;;;;;;5074907;28;19931;-52
2021/12/02 12:31:26;;;;;;;;;;;23.50;57.70;;;;;;5074042;28;20380;-51
2021/12/02 12:33:53;;;;;;;;;;;23.50;57.70;;;;;;5073065;28;20049;-54
2021/12/02 12:36:37;;;;;;;;;;;23.50;57.60;;;;;;5056522;28;19929;-49
2021/12/02 12:39:20;;;;;;;;;;;23.50;57.60;;;;;;5074836;28;19925;-55
2021/12/02 12:42:07;;;;;;;;;;;23.50;57.60;;;;;;5074249;28;19925;-53
2021/12/02 12:44:47;;;;;;;;;;;23.50;57.70;;;;;;5073780;28;19968;-50
2021/12/02 12:47:14;;;;;;;;;;;23.50;57.60;;;;;;5073879;28;19924;-57
2021/12/02 12:49:41;;;;;;;;;;;23.50;57.60;;;;;;5072701;28;19928;-57
2021/12/02 12:52:15;;;;;;;;;;;23.50;57.70;;;;;;5073797;28;19931;-59
2021/12/02 12:54:42;;;;;;;;;;;23.50;57.70;;;;;;5073740;28;19924;-59
2021/12/02 12:57:09;;;;;;;;;;;23.50;57.70;;;;;;5073618;28;19932;-56
2021/12/02 12:59:50;;;;;;;;;;;23.50;57.70;;;;;;5074599;28;19928;-53
2021/12/02 13:02:17;;;;;;;;;;;23.50;57.80;;;;;;5074176;28;19931;-52
2021/12/02 13:04:51;;;;;;;;;;;23.50;57.80;;;;;;5055407;28;19924;-50
2021/12/02 13:07:37;;;;;;;;;;;23.50;57.80;;;;;;5073220;28;19924;-56
2021/12/02 13:10:09;;;;;;;;;;;23.50;57.80;;;;;;5073626;28;20435;-52
2021/12/02 13:12:36;;;;;;;;;;;23.50;57.80;;;;;;5073654;28;19924;-52
2021/12/02 13:15:04;;;;;;;;;;;23.50;57.90;;;;;;5073562;28;19954;-51
2021/12/02 13:17:34;;;;;;;;;;;23.50;57.90;;;;;;5073866;28;20026;-52
2021/12/02 13:20:13;;;;;;;;;;;23.50;57.90;;;;;;5054858;28;19974;-52
2021/12/02 13:22:40;;;;;;;;;;;23.50;57.90;;;;;;5073324;28;19932;-56
2021/12/02 13:25:23;;;;;;;;;;;23.50;57.90;;;;;;5073379;28;19925;-55
2021/12/02 13:27:51;;;;;;;;;;;23.50;57.90;;;;;;5073651;28;19954;-54
2021/12/02 13:30:18;;;;;;;;;;;23.50;57.90;;;;;;5073588;28;19928;-51
2021/12/02 13:32:51;;;;;;;;;;;23.50;57.90;;;;;;5073632;28;19924;-59
2021/12/02 13:35:25;;;;;;;;;;;23.50;57.90;;;;;;5072480;28;19925;-59
2021/12/02 13:38:01;;;;;;;;;;;23.50;57.90;;;;;;5073492;28;20011;-51
2021/12/02 13:40:38;;;;;;;;;;;23.50;57.90;;;;;;5055810;28;19925;-54
2021/12/02 13:43:06;;;;;;;;;;;23.50;57.90;;;;;;5073063;28;19928;-57
2021/12/02 13:45:33;;;;;;;;;;;23.50;57.90;;;;;;5073095;28;20368;-58
2021/12/02 13:48:12;;;;;;;;;;;23.50;57.90;;;;;;5073379;28;20337;-48
2021/12/02 13:50:45;;;;;;;;;;;23.50;58.00;;;;;;5072245;28;19932;-53
2021/12/02 13:53:12;;;;;;;;;;;23.50;58.00;;;;;;5073010;28;19924;-52
2021/12/02 13:55:42;;;;;;;;;;;23.50;58.10;;;;;;5073358;28;19925;-53
2021/12/02 14:00:43;;;;;;;;;;;23.50;58.10;;;;;;5073161;28;19931;-57
2021/12/02 14:03:13;;;;;;;;;;;23.50;58.10;;;;;;5073295;28;19935;-55
2021/12/02 14:05:46;;;;;;;;;;;23.50;58.10;;;;;;5072494;28;19932;-51
2021/12/02 14:08:17;;;;;;;;;;;23.50;58.10;;;;;;5073359;28;20268;-48
2021/12/02 14:10:45;;;;;;;;;;;23.50;58.10;;;;;;5072979;28;19925;-52
2021/12/02 14:13:16;;;;;;;;;;;23.50;58.10;;;;;;5073636;28;20330;-53
2021/12/02 14:15:46;;;;;;;;;;;23.50;58.10;;;;;;5072885;28;19980;-52
2021/12/02 14:18:19;;;;;;;;;;;23.50;58.10;;;;;;5074092;28;19924;-50
2021/12/02 14:20:55;;;;;;;;;;;23.50;58.20;;;;;;5074473;28;19924;-50
2021/12/02 14:23:29;;;;;;;;;;;23.50;58.20;;;;;;5076611;28;19924;-52
2021/12/02 14:25:58;;;;;;;;;;;23.50;58.20;;;;;;5076760;28;20269;-54
2021/12/02 14:28:46;;;;;;;;;;;23.50;58.20;;;;;;5076544;28;19924;-51
2021/12/02 14:31:23;;;;;;;;;;;23.50;58.20;;;;;;5076491;28;19925;-58
2021/12/02 14:33:53;;;;;;;;;;;23.50;58.20;;;;;;5058862;28;19928;-57
2021/12/02 14:36:21;;;;;;;;;;;23.50;58.20;;;;;;5075279;28;19930;-49
2021/12/02 14:38:59;;;;;;;;;;;23.50;58.30;;;;;;5076221;28;19932;-54
2021/12/02 14:41:30;;;;;;;;;;;23.50;58.30;;;;;;5076465;28;19928;-55
2021/12/02 14:43:57;;;;;;;;;;;23.40;58.30;;;;;;5076661;28;19925;-56
2021/12/02 14:46:25;;;;;;;;;;;23.40;58.30;;;;;;5076317;28;19924;-57
2021/12/02 14:49:11;;;;;;;;;;;23.40;58.30;;;;;;5076060;28;19924;-53
2021/12/02 14:51:52;;;;;;;;;;;23.40;58.30;;;;;;5075218;28;19947;-52